createdAt,value
2019-04-05T00:00:08.756Z,85.5
2019-04-05T00:00:59.395Z,85.5
2019-04-05T00:01:50.981Z,85.5
2019-04-05T00:02:40.283Z,85.6
2019-04-05T00:03:28.686Z,85.6
2019-04-05T00:04:18.715Z,85.6
2019-04-05T00:05:09.406Z,85.6
2019-04-05T00:06:00.025Z,85.6
2019-04-05T00:06:48.785Z,85.6
2019-04-05T00:07:39.663Z,85.7
2019-04-05T00:08:28.727Z,85.7
2019-04-05T00:09:18.916Z,85.7
2019-04-05T00:10:08.695Z,85.8
2019-04-05T00:10:58.876Z,85.7
2019-04-05T00:11:48.683Z,85.8
2019-04-05T00:12:40.230Z,85.8
2019-04-05T00:13:28.754Z,85.9
2019-04-05T00:14:18.756Z,85.9
2019-04-05T00:15:15.421Z,85.9
2019-04-05T00:16:01.019Z,85.9
2019-04-05T00:16:48.776Z,85.9
2019-04-05T00:17:38.767Z,85.9
2019-04-05T00:18:28.735Z,86
2019-04-05T00:19:18.779Z,86
2019-04-05T00:20:10.667Z,86
2019-04-05T00:21:00.634Z,86
2019-04-05T00:21:48.951Z,86
2019-04-05T00:22:39.674Z,86
2019-04-05T00:23:29.193Z,86
2019-04-05T00:24:19.368Z,86
2019-04-05T00:25:09.815Z,86
2019-04-05T00:25:59.118Z,86
2019-04-05T00:26:48.858Z,86.1
2019-04-05T00:27:38.762Z,86.1
2019-04-05T00:28:28.874Z,86.1
2019-04-05T00:29:18.860Z,86.1
2019-04-05T00:30:08.892Z,86.1
2019-04-05T00:30:58.726Z,86.1
2019-04-05T00:31:48.824Z,86.1
2019-04-05T00:32:39.070Z,86.1
2019-04-05T00:33:28.974Z,86.1
2019-04-05T00:34:19.962Z,86.2
2019-04-05T00:35:10.792Z,86.1
2019-04-05T00:36:00.355Z,86.2
2019-04-05T00:36:49.481Z,86.3
2019-04-05T00:37:38.783Z,86.4
2019-04-05T00:38:28.742Z,86.4
2019-04-05T00:39:18.786Z,86.5
2019-04-05T05:32:36.922Z,87.9
2019-04-05T05:33:26.834Z,87.9
2019-04-05T05:34:16.800Z,87.9
2019-04-05T05:35:06.800Z,87.9
2019-04-05T05:35:56.913Z,88
2019-04-05T05:36:48.356Z,88
2019-04-05T05:37:36.836Z,88
2019-04-05T05:38:26.831Z,88.1
2019-04-05T05:39:16.791Z,88.1
2019-04-05T05:40:06.842Z,88.1
2019-04-05T05:40:56.812Z,88.1
2019-04-05T05:41:46.943Z,88.1
2019-04-05T05:42:36.845Z,88.1
2019-04-05T05:43:26.820Z,88.2
2019-04-05T05:44:16.861Z,88.2
2019-04-05T05:45:06.823Z,88.2
2019-04-05T05:45:56.802Z,88.2
2019-04-05T05:46:46.821Z,88.2
2019-04-05T05:47:37.141Z,88.2
2019-04-05T05:48:27.087Z,88.3
2019-04-05T05:49:17.064Z,88.2
2019-04-05T05:50:07.168Z,88.2
2019-04-05T05:50:57.089Z,88.1
2019-04-05T05:51:47.136Z,88.1
2019-04-05T05:52:37.063Z,88.1
2019-04-05T05:53:27.055Z,88.1
2019-04-05T05:54:17.109Z,88.1
2019-04-05T05:55:07.185Z,88
2019-04-05T05:55:57.193Z,88
2019-04-05T05:56:47.105Z,88
2019-04-05T05:57:37.187Z,88
2019-04-05T05:58:27.109Z,88
2019-04-05T05:59:17.143Z,88
2019-04-05T06:00:07.148Z,88
2019-04-05T06:00:57.099Z,88.1
2019-04-05T06:01:47.206Z,88.1
2019-04-05T06:02:38.701Z,88.1
2019-04-05T06:03:27.088Z,88.1
2019-04-05T06:04:17.247Z,88.1
2019-04-05T06:05:07.140Z,88.1
2019-04-05T06:06:03.914Z,88.2
2019-04-05T06:06:47.148Z,88.2
2019-04-05T06:07:37.133Z,88.2
2019-04-05T06:08:29.152Z,88.2
2019-04-05T06:09:17.174Z,88.3
2019-04-05T06:10:07.099Z,88.3
2019-04-05T06:10:57.121Z,88.4
2019-04-05T06:11:47.161Z,88.4
2019-04-05T06:12:37.103Z,88.4
2019-04-05T06:13:27.126Z,88.4
2019-04-05T06:14:17.093Z,88.5
2019-04-05T06:15:07.101Z,88.5
2019-04-05T06:15:58.010Z,88.5
2019-04-05T06:16:47.129Z,88.6
2019-04-05T06:17:37.102Z,88.6
2019-04-05T06:18:27.270Z,88.7
2019-04-05T06:19:17.355Z,88.7
2019-04-05T06:20:07.209Z,88.8
2019-04-05T06:20:57.399Z,88.9
2019-04-05T06:21:47.418Z,88.9
2019-04-05T06:22:37.148Z,88.9
2019-04-05T06:23:33.318Z,89
2019-04-05T06:24:17.155Z,89
2019-04-05T06:25:07.194Z,89
2019-04-05T06:25:58.509Z,89
2019-04-05T06:26:47.134Z,89
2019-04-05T06:27:37.147Z,89
2019-04-05T06:28:27.149Z,89.1
2019-04-05T06:29:17.104Z,89.1
2019-04-05T06:30:07.180Z,89.1
2019-04-05T06:30:57.649Z,89.2
2019-04-05T06:35:58.868Z,89.5
2019-04-05T06:36:51.145Z,89.5
2019-04-05T06:37:38.847Z,89.5
2019-04-05T06:38:28.932Z,89.6
2019-04-05T06:39:20.620Z,89.6
2019-04-05T06:40:08.843Z,89.7
2019-04-05T06:41:00.352Z,89.7
2019-04-05T06:41:48.844Z,89.7
2019-04-05T06:42:38.865Z,89.7
2019-04-05T06:43:28.906Z,89.8
2019-04-05T06:44:19.244Z,89.8
2019-04-05T06:45:08.826Z,89.8
2019-04-05T06:45:59.983Z,89.8
2019-04-05T06:46:48.967Z,89.8
2019-04-05T06:47:38.849Z,89.9
2019-04-05T06:48:29.424Z,89.9
2019-04-05T06:49:19.354Z,90
2019-04-05T06:50:08.856Z,90
2019-04-05T06:50:58.919Z,90
2019-04-05T06:51:48.895Z,90
2019-04-05T06:52:39.005Z,90
2019-04-05T06:53:28.951Z,90.1
2019-04-05T06:54:19.224Z,90.1
2019-04-05T06:55:08.866Z,90.1
2019-04-05T06:55:59.836Z,90.1
2019-04-05T06:56:48.854Z,90.1
2019-04-05T06:57:38.839Z,90
2019-04-05T06:58:29.441Z,90.1
2019-04-05T06:59:19.352Z,90.1
2019-04-05T07:00:08.919Z,90.1
2019-04-05T07:00:58.913Z,90.1
2019-04-05T07:01:48.907Z,90.1
2019-04-05T07:02:38.913Z,90.1
2019-04-05T07:03:28.919Z,90.1
2019-04-05T07:04:18.909Z,90.1
2019-04-05T07:05:08.817Z,90.1
2019-04-05T07:05:58.917Z,90.2
2019-04-05T07:06:48.910Z,90.2
2019-04-05T07:07:38.892Z,90.2
2019-04-05T07:08:28.976Z,90.2
2019-04-05T07:09:18.987Z,90.3
2019-04-05T07:10:08.912Z,90.2
2019-04-05T07:10:58.933Z,90.2
2019-04-05T07:11:48.903Z,90.2
2019-04-05T07:12:38.906Z,90.3
2019-04-05T07:13:28.884Z,90.3
2019-04-05T07:14:18.972Z,90.3
2019-04-05T07:15:08.877Z,90.3
2019-04-05T07:15:58.888Z,90.3
2019-04-05T07:16:48.871Z,90.4
2019-04-05T07:17:38.961Z,90.3
2019-04-05T07:18:34.248Z,90.4
2019-04-05T07:19:18.872Z,90.3
2019-04-05T07:20:08.904Z,90.3
2019-04-05T07:20:58.901Z,90.3
2019-04-05T07:21:48.950Z,90.3
2019-04-05T07:22:39.619Z,90.3
2019-04-05T07:23:29.149Z,90.3
2019-04-05T07:24:19.413Z,90.3
2019-04-05T07:25:09.181Z,90.3
2019-04-05T07:25:59.172Z,90.2
2019-04-05T07:26:49.258Z,90.2
2019-04-05T07:27:39.222Z,90.2
2019-04-05T07:28:29.146Z,90.2
2019-04-05T07:29:19.145Z,90.2
2019-04-05T07:30:09.164Z,90.1
2019-04-05T07:30:59.154Z,90
2019-04-05T07:31:49.230Z,90.1
2019-04-05T07:32:39.484Z,90
2019-04-05T07:33:29.802Z,90
2019-04-05T07:34:19.126Z,90
2019-04-05T07:35:09.512Z,90
2019-04-05T07:35:59.149Z,90
2019-04-05T07:36:49.166Z,90
2019-04-05T07:37:39.517Z,90
2019-04-05T07:38:29.659Z,90
2019-04-05T07:39:19.322Z,89.9
2019-04-05T07:40:09.191Z,89.9
2019-04-05T07:40:59.172Z,89.9
2019-04-05T07:41:49.172Z,89.9
2019-04-05T07:42:39.131Z,89.9
2019-04-05T07:43:29.094Z,89.9
2019-04-05T07:44:19.197Z,89.9
2019-04-05T07:45:09.184Z,89.9
2019-04-05T07:45:59.177Z,89.9
2019-04-05T07:46:49.149Z,89.8
2019-04-05T07:47:39.144Z,89.8
2019-04-05T07:48:30.211Z,89.8
2019-04-05T07:49:20.157Z,89.6
2019-04-05T07:50:11.482Z,89.6
2019-04-05T07:51:00.540Z,89.6
2019-04-05T07:51:50.200Z,89.5
2019-04-05T07:52:40.220Z,89.4
2019-04-05T07:53:30.203Z,89.4
2019-04-05T07:54:20.539Z,89.3
2019-04-05T07:55:12.559Z,89.2
2019-04-05T07:56:01.105Z,89.2
2019-04-05T07:56:50.973Z,89.1
2019-04-05T07:57:40.961Z,89
2019-04-05T07:58:30.998Z,88.8
2019-04-05T07:59:21.173Z,88.7
2019-04-05T08:00:13.441Z,88.7
2019-04-05T08:01:00.988Z,88.7
2019-04-05T08:01:51.000Z,88.7
2019-04-05T08:02:40.979Z,88.6
2019-04-05T08:03:30.989Z,88.5
2019-04-05T08:04:21.018Z,88.5
2019-04-05T08:05:11.035Z,88.5
2019-04-05T08:06:01.028Z,88.4
2019-04-05T08:06:50.998Z,88.4
2019-04-05T08:07:41.028Z,88.4
2019-04-05T08:08:31.124Z,88.4
2019-04-05T08:09:20.989Z,88.3
2019-04-05T08:10:11.246Z,88.3
2019-04-05T08:11:01.242Z,88.1
2019-04-05T08:11:51.266Z,88
2019-04-05T08:12:41.303Z,87.8
2019-04-05T08:13:31.364Z,87.5
2019-04-05T08:14:21.494Z,87.4
2019-04-05T08:15:11.297Z,87.3
2019-04-05T08:16:01.815Z,87.3
2019-04-05T08:16:51.768Z,87.2
2019-04-05T08:17:41.778Z,87.1
2019-04-05T08:18:31.783Z,87
2019-04-05T08:19:22.143Z,86.6
2019-04-05T08:20:11.796Z,86.7
2019-04-05T08:21:01.756Z,86.7
2019-04-05T08:21:51.771Z,86.7
2019-04-05T08:22:41.762Z,86.7
2019-04-05T08:23:31.758Z,86.6
2019-04-05T08:24:21.765Z,86.7
2019-04-05T08:25:11.830Z,86.6
2019-04-05T08:26:01.777Z,86.5
2019-04-05T08:32:50.641Z,85.2
2019-04-05T08:33:40.647Z,84.8
2019-04-05T08:34:30.668Z,84.8
2019-04-05T08:35:20.628Z,84.7
2019-04-05T08:36:10.690Z,84.5
2019-04-05T08:37:00.731Z,84.4
2019-04-05T08:37:50.686Z,84.2
2019-04-05T08:38:40.674Z,84.2
2019-04-05T08:39:30.670Z,84.1
2019-04-05T08:40:20.660Z,83.8
2019-04-05T08:41:10.631Z,83.7
2019-04-05T08:42:00.600Z,83.4
2019-04-05T08:42:50.651Z,83
2019-04-05T08:43:40.696Z,82.8
2019-04-05T08:44:30.984Z,83
2019-04-05T08:45:21.250Z,83
2019-04-05T08:46:11.192Z,83
2019-04-05T08:47:02.310Z,82.9
2019-04-05T08:47:52.427Z,82.1
2019-04-05T08:48:42.581Z,82.2
2019-04-05T08:49:32.465Z,82.3
2019-04-05T08:50:22.411Z,82.4
2019-04-05T08:51:12.491Z,82.4
2019-04-05T08:52:02.539Z,82.4
2019-04-05T08:52:52.646Z,82.4
2019-04-05T08:53:42.693Z,82.5
2019-04-05T08:54:36.385Z,82.5
2019-04-05T08:55:24.167Z,82.4
2019-04-05T08:57:02.926Z,82.1
2019-04-05T08:58:04.955Z,81.9
2019-04-05T08:58:54.945Z,81.9
2019-04-05T08:59:44.955Z,81.9
2019-04-05T09:00:34.948Z,81.9
2019-04-05T09:01:24.995Z,81.9
2019-04-05T09:02:15.023Z,81.8
2019-04-05T09:03:04.946Z,81.9
2019-04-05T09:03:54.949Z,82
2019-04-05T09:04:45.240Z,82
2019-04-05T09:13:04.726Z,80.6
2019-04-05T09:13:54.730Z,80.4
2019-04-05T09:14:45.656Z,80.3
2019-04-05T09:15:35.661Z,80.1
2019-04-05T09:16:25.790Z,80.3
2019-04-05T09:17:15.727Z,80.4
2019-04-05T09:18:09.713Z,80.3
2019-04-05T09:18:59.275Z,80.1
2019-04-05T09:19:49.330Z,79.7
2019-04-05T09:20:39.314Z,79.2
2019-04-05T09:21:29.317Z,79.2
2019-04-05T09:22:19.286Z,79.4
2019-04-05T09:23:09.278Z,79.4
2019-04-05T09:23:59.536Z,79.7
2019-04-05T09:24:49.289Z,79.3
2019-04-05T09:25:39.357Z,78.8
2019-04-05T09:26:29.445Z,78.7
2019-04-05T09:27:19.296Z,79
2019-04-05T09:28:09.300Z,79
2019-04-05T09:28:59.276Z,78.7
2019-04-05T09:29:49.296Z,78.8
2019-04-05T09:30:39.273Z,79
2019-04-05T09:31:29.304Z,78.8
2019-04-05T09:32:19.303Z,78.6
2019-04-05T09:33:09.389Z,78.7
2019-04-05T09:33:59.318Z,78.8
2019-04-05T09:34:49.260Z,79
2019-04-05T09:35:39.305Z,79.1
2019-04-05T09:36:29.821Z,79
2019-04-05T09:37:19.333Z,78.6
2019-04-05T09:38:09.245Z,78.8
2019-04-05T09:38:59.281Z,78.9
2019-04-05T09:39:49.295Z,78.8
2019-04-05T09:40:39.401Z,78.9
2019-04-05T09:41:29.434Z,78.7
2019-04-05T09:42:19.299Z,78.8
2019-04-05T09:43:09.322Z,78.7
2019-04-05T09:43:59.313Z,78.7
2019-04-05T09:44:49.292Z,78.7
2019-04-05T09:45:39.295Z,78.7
2019-04-05T09:46:30.304Z,78.8
2019-04-05T09:47:21.045Z,78.6
2019-04-05T09:48:12.037Z,78.6
2019-04-05T09:49:02.049Z,78.3
2019-04-05T09:49:52.029Z,78.3
2019-04-05T09:50:42.061Z,78.3
2019-04-05T09:51:32.085Z,78
2019-04-05T09:52:22.130Z,77.9
2019-04-05T09:53:12.097Z,77.9
2019-04-05T09:54:02.105Z,78.1
2019-04-05T09:54:52.191Z,78.3
2019-04-05T09:55:42.101Z,78.3
2019-04-05T09:56:32.064Z,77.8
2019-04-05T09:57:22.095Z,77.8
2019-04-05T09:58:12.053Z,77.7
2019-04-05T09:59:02.068Z,77.8
2019-04-05T09:59:52.090Z,77.8
2019-04-05T10:00:42.670Z,77.7
2019-04-05T10:01:32.568Z,77.8
2019-04-05T10:02:22.722Z,77.9
2019-04-05T10:03:12.688Z,78
2019-04-05T10:04:02.613Z,78.1
2019-04-05T10:04:52.590Z,78.1
2019-04-05T10:05:42.731Z,77.9
2019-04-05T10:06:32.651Z,77.8
2019-04-05T10:07:22.579Z,77.9
2019-04-05T10:08:13.004Z,77.9
2019-04-05T10:09:02.839Z,77.8
2019-04-05T10:09:52.901Z,77.5
2019-04-05T10:10:43.215Z,76.8
2019-04-05T10:11:33.101Z,76.8
2019-04-05T10:12:23.094Z,76.7
2019-04-05T10:13:13.234Z,76.7
2019-04-05T10:14:03.165Z,76.7
2019-04-05T10:14:53.173Z,76.6
2019-04-05T10:15:43.076Z,76.6
2019-04-05T10:16:33.121Z,76.7
2019-04-05T10:17:23.101Z,76.9
2019-04-05T10:18:13.142Z,76.8
2019-04-05T10:19:03.159Z,76.9
2019-04-05T10:19:53.097Z,76.7
2019-04-05T10:20:43.129Z,76.7
2019-04-05T10:21:33.097Z,76.8
2019-04-05T10:22:23.271Z,77
2019-04-05T10:23:13.314Z,76.5
2019-04-05T10:24:03.069Z,76
2019-04-05T10:24:53.090Z,76
2019-04-05T10:25:44.045Z,76.3
2019-04-05T10:26:33.104Z,76.1
2019-04-05T10:27:23.242Z,75.5
2019-04-05T10:28:13.239Z,75.6
2019-04-05T10:29:03.111Z,75.6
2019-04-05T10:29:53.144Z,75.5
2019-04-05T10:30:43.099Z,75.5
2019-04-05T10:31:33.140Z,75.5
2019-04-05T10:56:55.426Z,72.7
2019-04-05T10:57:47.715Z,72.9
2019-04-05T10:58:35.450Z,72.8
2019-04-05T10:59:25.577Z,72.7
2019-04-05T11:00:15.448Z,72.9
2019-04-05T11:01:05.445Z,73.2
2019-04-05T11:12:29.894Z,72.1
2019-04-05T11:33:24.039Z,70.3
2019-04-05T11:34:14.173Z,70.2
2019-04-05T11:35:04.040Z,70.6
2019-04-05T11:35:54.050Z,70.7
2019-04-05T11:36:44.044Z,70.8
2019-04-05T11:37:34.029Z,71.1
2019-04-05T11:38:24.552Z,71.3
2019-04-05T11:39:14.054Z,71.2
2019-04-05T11:40:04.074Z,70.8
2019-04-05T11:40:54.289Z,70.6
2019-04-05T11:41:44.130Z,70.7
2019-04-05T11:42:34.273Z,71
2019-04-05T11:43:26.127Z,71
2019-04-05T11:45:21.148Z,71
2019-04-05T11:46:10.956Z,71.1
2019-04-05T11:47:00.937Z,71
2019-04-05T11:47:53.505Z,69.9
2019-04-05T11:48:41.313Z,70.4
2019-04-05T11:49:30.938Z,71
2019-04-05T11:50:33.528Z,70.8
2019-04-05T11:51:14.438Z,70.7
2019-04-05T11:52:04.427Z,70.3
2019-04-05T11:52:55.809Z,70.3
2019-04-05T11:53:45.704Z,70.6
2019-04-05T11:54:35.716Z,70.5
2019-04-05T11:55:25.586Z,70
2019-04-05T11:56:19.676Z,69.9
2019-04-05T11:57:05.618Z,70
2019-04-05T11:57:56.771Z,69.5
2019-04-05T11:58:48.456Z,69.8
2019-04-05T11:59:35.639Z,70.3
2019-04-05T12:00:25.593Z,70.5
2019-04-05T12:01:15.613Z,70.7
2019-04-05T12:02:05.588Z,70.6
2019-04-05T12:02:56.257Z,70.6
2019-04-05T12:03:45.689Z,70.5
2019-04-05T12:04:35.606Z,70.6
2019-04-05T12:05:27.121Z,70.5
2019-04-05T12:06:15.607Z,70.6
2019-04-05T12:07:05.585Z,70.7
2019-04-05T12:08:00.845Z,70.2
2019-04-05T12:08:47.194Z,70
2019-04-05T12:09:37.226Z,70
2019-04-05T12:10:31.676Z,70.3
2019-04-05T12:11:18.545Z,70.1
2019-04-05T12:12:09.300Z,70.2
2019-04-05T12:20:59.885Z,70.6
2019-04-05T12:28:10.161Z,70.8
2019-04-05T12:28:56.773Z,70.8
2019-04-05T12:29:46.713Z,71
2019-04-05T12:30:42.409Z,71
2019-04-05T12:31:32.380Z,71.1
2019-04-05T12:32:32.718Z,71.1
2019-04-05T12:33:14.091Z,71.2
2019-04-05T12:34:02.409Z,71.2
2019-04-05T12:34:52.664Z,71
2019-04-05T12:35:42.383Z,71.2
2019-04-05T12:36:32.978Z,71.2
2019-04-05T12:37:22.516Z,70.9
2019-04-05T12:38:12.398Z,70.4
2019-04-05T12:39:04.040Z,70.5
2019-04-05T12:44:39.661Z,71.4
2019-04-05T12:45:44.270Z,71.4
2019-04-05T12:48:18.554Z,70.9
2019-04-05T12:52:36.784Z,71.5
2019-04-05T12:53:35.897Z,71.4
2019-04-05T12:55:47.404Z,71.8
2019-04-05T12:56:42.370Z,71.9
2019-04-05T12:57:36.449Z,72
2019-04-05T12:58:32.660Z,71.9
2019-04-05T12:59:21.229Z,71.4
2019-04-05T13:00:13.272Z,71.1
2019-04-05T13:01:01.642Z,71.3
2019-04-05T13:01:52.006Z,71.4
2019-04-05T13:02:45.020Z,71.4
2019-04-05T13:03:35.675Z,71.4
2019-04-05T13:04:26.007Z,71.4
2019-04-05T13:05:21.635Z,71.2
2019-04-05T13:06:37.906Z,71.1
2019-04-05T13:07:35.125Z,71.2
2019-04-05T13:08:41.145Z,70.7
2019-04-05T13:12:35.774Z,70.6
2019-04-05T13:13:54.306Z,70.5
2019-04-05T13:14:43.562Z,70.5
2019-04-05T13:15:33.498Z,70.2
2019-04-05T13:16:24.441Z,70.6
2019-04-05T13:17:16.917Z,71.1
2019-04-05T13:18:09.301Z,71.1
2019-04-05T13:19:00.808Z,71.1
2019-04-05T13:19:49.539Z,71
2019-04-05T13:20:42.466Z,71.1
2019-04-05T13:21:33.205Z,71.1
2019-04-05T13:23:39.913Z,71.3
2019-04-05T13:24:39.379Z,71.5
2019-04-05T13:27:53.292Z,71.5
2019-04-05T13:29:05.759Z,71.7
2019-04-05T13:30:34.298Z,71.8
2019-04-05T13:31:27.029Z,71.7
2019-04-05T13:32:22.267Z,71.3
2019-04-05T13:53:48.287Z,72
2019-04-05T13:54:40.307Z,72
2019-04-05T13:55:28.358Z,71.9
2019-04-05T13:56:18.458Z,72
2019-04-05T13:58:00.682Z,72
2019-04-05T13:58:48.392Z,72.1
2019-04-05T13:59:38.412Z,72.2
2019-04-05T14:00:28.287Z,72.5
2019-04-05T14:01:18.440Z,72.5
2019-04-05T14:02:08.261Z,72.5
2019-04-05T14:02:58.326Z,72.4
2019-04-05T14:03:50.132Z,72.4
2019-04-05T14:04:38.372Z,72.4
2019-04-05T14:05:28.365Z,72.4
2019-04-05T14:06:18.283Z,72.1
2019-04-05T14:07:08.361Z,71.8
2019-04-05T14:08:09.638Z,71.4
2019-04-05T14:08:48.367Z,71.4
2019-04-05T14:09:40.506Z,71.9
2019-04-05T14:10:28.416Z,72
2019-04-05T14:11:18.476Z,72.1
2019-04-05T14:12:58.335Z,72
2019-04-05T14:13:48.292Z,72
2019-04-05T14:14:39.377Z,72.2
2019-04-05T14:15:31.242Z,72
2019-04-05T14:16:18.486Z,72
2019-04-05T14:17:08.570Z,72
2019-04-05T14:17:58.300Z,72
2019-04-05T14:18:49.702Z,72.1
2019-04-05T14:19:38.788Z,71.8
2019-04-05T14:20:28.316Z,71.6
2019-04-05T14:21:20.505Z,71.8
2019-04-05T14:22:09.225Z,71.9
2019-04-05T14:22:58.287Z,71.7
2019-04-05T14:23:48.277Z,71.3
2019-04-05T14:24:38.347Z,71.4
2019-04-05T14:25:30.075Z,71.6
2019-04-05T14:26:19.022Z,71.6
2019-04-05T14:27:08.320Z,71.8
2019-04-05T14:27:58.312Z,72
2019-04-05T14:28:48.363Z,71.9
2019-04-05T14:29:38.348Z,71.5
2019-04-05T14:30:28.312Z,71.8
2019-04-05T14:31:18.296Z,71.9
2019-04-05T14:32:20.299Z,72.2
2019-04-05T14:32:58.307Z,72.4
2019-04-05T14:33:48.310Z,72.1
2019-04-05T14:34:38.336Z,72
2019-04-05T14:35:28.317Z,71.9
2019-04-05T14:36:19.709Z,71.8
2019-04-05T14:37:08.347Z,71.9
2019-04-05T14:37:58.257Z,72
2019-04-05T14:38:48.303Z,72.1
2019-04-05T14:39:38.297Z,72.2
2019-04-05T14:40:28.853Z,72
2019-04-05T14:41:20.621Z,71.9
2019-04-05T14:42:09.805Z,71.9
2019-04-05T14:42:58.278Z,72.1
2019-04-05T14:43:48.339Z,72
2019-04-05T14:44:38.291Z,72.2
2019-04-05T14:45:28.268Z,72.3
2019-04-05T14:46:19.656Z,72.4
2019-04-05T14:47:08.333Z,72.4
2019-04-05T14:47:58.622Z,72.4
2019-04-05T14:48:48.377Z,72.5
2019-04-05T14:49:38.334Z,72.6
2019-04-05T14:50:28.929Z,72.6
2019-04-05T14:51:19.208Z,72.6
2019-04-05T14:52:08.590Z,72.7
2019-04-05T14:53:00.670Z,72.6
2019-04-05T14:53:48.533Z,72.3
2019-04-05T14:54:38.608Z,72.3
2019-04-05T14:55:29.763Z,72.1
2019-04-05T14:56:18.595Z,72.1
2019-04-05T14:57:08.561Z,72.2
2019-04-05T14:57:58.551Z,72.2
2019-04-05T14:58:48.561Z,72.4
2019-04-05T14:59:38.537Z,72.5
2019-04-05T15:00:28.556Z,72.4
2019-04-05T15:01:18.997Z,72.2
2019-04-05T15:02:08.668Z,71.9
2019-04-05T15:02:58.602Z,71.8
2019-04-05T15:03:48.599Z,71.9
2019-04-05T15:04:38.602Z,71.9
2019-04-05T15:05:28.585Z,71.9
2019-04-05T15:06:18.600Z,72.1
2019-04-05T15:07:08.572Z,72.1
2019-04-05T15:07:58.661Z,72.2
2019-04-05T15:08:52.061Z,72.1
2019-04-05T15:09:38.548Z,72.3
2019-04-05T15:10:28.604Z,72.5
2019-04-05T15:11:18.602Z,72.3
2019-04-05T15:12:08.540Z,72.4
2019-04-05T15:13:00.176Z,72.5
2019-04-05T15:13:48.960Z,72.3
2019-04-05T15:14:38.586Z,72.5
2019-04-05T15:15:28.916Z,72.7
2019-04-05T15:16:18.617Z,72.7
2019-04-05T15:17:08.627Z,72.8
2019-04-05T15:17:58.560Z,72.7
2019-04-05T15:18:48.581Z,72.9
2019-04-05T15:19:38.612Z,72.8
2019-04-05T15:20:28.625Z,72.7
2019-04-05T15:21:18.616Z,72.8
2019-04-05T15:22:11.055Z,72.6
2019-04-05T15:22:58.632Z,72.7
2019-04-05T15:23:48.638Z,72.7
2019-04-05T15:24:38.908Z,72.8
2019-04-05T15:25:29.814Z,72.9
2019-04-05T15:26:21.244Z,73
2019-04-05T15:27:09.801Z,72.8
2019-04-05T15:27:59.791Z,72.7
2019-04-05T15:28:49.774Z,72.6
2019-04-05T15:29:39.901Z,72.5
2019-04-05T15:30:29.910Z,72.6
2019-04-05T15:31:19.775Z,72.6
2019-04-05T15:32:09.879Z,72.7
2019-04-05T15:32:59.777Z,72.7
2019-04-05T15:33:49.761Z,72.6
2019-04-05T15:34:39.785Z,72.5
2019-04-05T15:35:29.919Z,72.6
2019-04-05T15:36:19.939Z,72.8
2019-04-05T15:37:09.840Z,73
2019-04-05T15:38:02.020Z,73.2
2019-04-05T15:38:50.279Z,73.2
2019-04-05T15:39:40.273Z,73.3
2019-04-05T15:40:30.877Z,73.4
2019-04-05T15:41:20.324Z,73.5
2019-04-05T15:42:10.355Z,73.5
2019-04-05T15:43:00.519Z,73.3
2019-04-05T15:43:50.348Z,73.4
2019-04-05T15:44:40.563Z,73.5
2019-04-05T15:45:31.186Z,73.5
2019-04-05T15:46:20.367Z,73.5
2019-04-05T15:47:10.396Z,73.5
2019-04-05T15:48:00.478Z,73.4
2019-04-05T15:48:51.748Z,73.4
2019-04-05T15:49:40.378Z,73.3
2019-04-05T15:50:30.309Z,73.3
2019-04-05T15:51:22.507Z,73.3
2019-04-05T15:52:18.394Z,73.1
2019-04-05T15:53:02.232Z,73.1
2019-04-05T15:53:51.042Z,73.1
2019-04-05T15:54:43.115Z,73.1
2019-04-05T15:55:33.191Z,73.1
2019-04-05T15:56:26.786Z,73.3
2019-04-05T15:57:11.097Z,73.3
2019-04-05T15:58:01.406Z,73.4
2019-04-05T15:58:52.444Z,73.3
2019-04-05T15:59:44.835Z,73.3
2019-04-05T16:00:33.707Z,73.4
2019-04-05T16:01:21.886Z,73.5
2019-04-05T16:02:12.390Z,73.6
2019-04-05T16:03:02.501Z,73.6
2019-04-05T16:03:52.371Z,73.4
2019-04-05T16:04:42.407Z,73.3
2019-04-05T16:05:34.664Z,73.3
2019-04-05T16:06:22.440Z,73.3
2019-04-05T16:07:12.375Z,73.4
2019-04-05T16:08:03.037Z,73.5
2019-04-05T16:08:52.978Z,73.6
2019-04-05T16:09:42.977Z,73.6
2019-04-05T16:10:35.162Z,73.7
2019-04-05T16:11:22.985Z,73.8
2019-04-05T16:12:13.149Z,73.8
2019-04-05T16:13:02.959Z,73.9
2019-04-05T16:13:52.975Z,73.9
2019-04-05T16:14:42.979Z,74
2019-04-05T16:15:34.837Z,74.1
2019-04-05T16:16:23.682Z,74
2019-04-05T16:17:13.622Z,74.1
2019-04-05T16:18:03.667Z,74.1
2019-04-05T16:18:53.622Z,74.1
2019-04-05T16:19:43.700Z,74
2019-04-05T16:20:33.792Z,74.1
2019-04-05T16:21:23.613Z,74.1
2019-04-05T16:22:14.123Z,74
2019-04-05T16:23:04.774Z,73.8
2019-04-05T16:23:54.775Z,73.7
2019-04-05T16:24:45.744Z,73.7
2019-04-05T16:25:36.136Z,73.8
2019-04-05T16:26:26.010Z,73.9
2019-04-05T16:27:15.766Z,74
2019-04-05T16:28:05.823Z,73.9
2019-04-05T16:28:55.735Z,74
2019-04-05T16:29:45.794Z,74
2019-04-05T16:30:39.497Z,74
2019-04-05T16:31:25.862Z,74.1
2019-04-05T16:32:15.787Z,74.1
2019-04-05T16:33:05.777Z,74.1
2019-04-05T16:33:55.735Z,74.1
2019-04-05T16:34:45.778Z,74.3
2019-04-05T16:35:38.180Z,74.2
2019-04-05T16:36:26.171Z,74.1
2019-04-05T16:37:15.771Z,74.1
2019-04-05T16:38:05.789Z,74.1
2019-04-05T16:38:55.806Z,74.2
2019-04-05T16:39:45.784Z,74.2
2019-04-05T16:40:35.927Z,74.4
2019-04-05T16:41:25.817Z,74.5
2019-04-05T16:42:15.918Z,74.6
2019-04-05T16:43:05.846Z,74.6
2019-04-05T16:43:56.003Z,74.5
2019-04-05T16:44:45.853Z,74.5
2019-04-05T16:45:38.531Z,74.6
2019-04-05T16:46:26.610Z,74.6
2019-04-05T16:47:16.577Z,74.6
2019-04-05T16:48:06.569Z,74.7
2019-04-05T16:48:56.549Z,74.9
2019-04-05T16:49:46.590Z,75.1
2019-04-05T16:50:36.552Z,75
2019-04-05T16:51:26.558Z,75.1
2019-04-05T16:52:16.543Z,75
2019-04-05T16:53:06.693Z,74.9
2019-04-05T16:53:56.597Z,74.8
2019-04-05T16:54:46.566Z,74.7
2019-04-05T16:55:36.544Z,74.7
2019-04-05T16:56:27.218Z,74.8
2019-04-05T16:57:17.227Z,74.9
2019-04-05T16:58:07.239Z,74.9
2019-04-05T16:58:57.225Z,74.8
2019-04-05T16:59:47.265Z,74.8
2019-04-05T17:00:37.269Z,74.9
2019-04-05T17:01:27.768Z,74.9
2019-04-05T17:02:17.221Z,74.9
2019-04-05T17:03:07.265Z,74.9
2019-04-05T17:03:57.241Z,75
2019-04-05T17:04:47.347Z,74.9
2019-04-05T17:05:37.205Z,75
2019-04-05T17:06:27.280Z,75.1
2019-04-05T17:07:17.200Z,75.1
2019-04-05T17:08:07.251Z,75.2
2019-04-05T17:08:57.217Z,75.2
2019-04-05T17:09:47.287Z,75.2
2019-04-05T17:10:38.328Z,75.2
2019-04-05T17:11:29.778Z,75.3
2019-04-05T17:12:20.703Z,75.3
2019-04-05T17:13:10.620Z,75.3
2019-04-05T17:14:01.123Z,75.4
2019-04-05T17:14:52.408Z,75.5
2019-04-05T17:15:45.372Z,75.5
2019-04-05T17:16:33.869Z,75.6
2019-04-05T17:17:25.657Z,75.5
2019-04-05T17:18:15.657Z,75.6
2019-04-05T17:19:06.311Z,75.7
2019-04-05T17:19:59.283Z,75.7
2019-04-05T17:20:50.131Z,75.8
2019-04-05T17:21:39.676Z,75.7
2019-04-05T17:22:32.095Z,75.7
2019-04-05T17:23:22.904Z,75.8
2019-04-05T17:24:14.816Z,75.9
2019-04-05T17:25:04.896Z,75.9
2019-04-05T17:25:55.531Z,76
2019-04-05T17:26:46.892Z,76
2019-04-05T17:27:35.764Z,76
2019-04-05T17:28:26.371Z,76
2019-04-05T17:29:16.282Z,76
2019-04-05T17:30:06.270Z,76
2019-04-05T17:30:56.271Z,76
2019-04-05T17:31:48.188Z,76.1
2019-04-05T17:32:36.325Z,76.1
2019-04-05T17:33:26.296Z,76.2
2019-04-05T17:34:16.330Z,76.3
2019-04-05T17:35:10.301Z,76.4
2019-04-05T17:36:11.908Z,76.4
2019-04-05T17:37:19.563Z,76.4
2019-04-05T17:40:05.579Z,76.7
2019-04-05T17:44:14.515Z,76.8
2019-04-05T17:45:06.993Z,76.8
2019-04-05T17:46:32.749Z,76.8
2019-04-05T17:47:31.256Z,76.9
2019-04-05T17:48:39.061Z,77
2019-04-05T17:51:20.026Z,77.1
2019-04-05T17:53:35.122Z,77.2
2019-04-05T17:54:25.346Z,77.1
2019-04-05T17:55:15.334Z,77.2
2019-04-05T17:56:05.621Z,77.2
2019-04-05T17:56:55.548Z,77.3
2019-04-05T17:57:45.685Z,77.3
2019-04-05T17:58:35.578Z,77.4
2019-04-05T17:59:25.584Z,77.4
2019-04-05T18:00:15.713Z,77.5
2019-04-05T18:01:08.753Z,77.6
2019-04-05T18:01:58.765Z,77.6
2019-04-05T18:02:48.820Z,77.6
2019-04-05T18:03:39.813Z,77.6
2019-04-05T18:04:29.699Z,77.6
2019-04-05T18:05:22.293Z,77.6
2019-04-05T18:06:12.316Z,77.5
2019-04-05T18:07:02.321Z,77.7
2019-04-05T18:07:52.371Z,77.7
2019-04-05T18:10:42.833Z,77.8
2019-04-05T18:11:34.187Z,77.9
2019-04-05T18:12:25.397Z,77.9
2019-04-05T18:13:15.364Z,77.9
2019-04-05T18:14:05.376Z,77.9
2019-04-05T18:14:55.399Z,77.9
2019-04-05T18:15:52.102Z,78
2019-04-05T18:16:35.409Z,77.9
2019-04-05T18:17:25.398Z,78
2019-04-05T18:18:16.623Z,78.3
2019-04-05T18:19:07.918Z,78.1
2019-04-05T18:19:58.157Z,78
2019-04-05T18:20:47.856Z,78.1
2019-04-05T18:21:38.853Z,78.2
2019-04-05T18:22:28.935Z,78.1
2019-04-05T18:23:24.611Z,78.2
2019-04-05T18:25:31.982Z,78.4
2019-04-05T18:26:33.508Z,78.4
2019-04-05T18:28:02.674Z,78.5
2019-04-05T18:31:48.085Z,78.5
2019-04-05T18:33:02.342Z,78.7
2019-04-05T18:35:13.596Z,78.7
2019-04-05T18:36:12.438Z,78.8
2019-04-05T18:39:55.809Z,79
2019-04-05T18:41:01.913Z,79